sensor_id;sensor_type;location;lat;lon;timestamp;P1;durP1;ratioP1;P2;durP2;ratioP2
59306;SDS011;47983;53.016;-2.260;2023-08-31T00:01:49;7.50;;;3.40;;
59306;SDS011;47983;53.016;-2.260;2023-08-31T00:04:19;7.13;;;2.70;;
59306;SDS011;47983;53.016;-2.260;2023-08-31T00:06:47;7.30;;;3.00;;
59306;SDS011;47983;53.016;-2.260;2023-08-31T00:09:15;7.40;;;2.80;;
59306;SDS011;47983;53.016;-2.260;2023-08-31T00:11:42;7.20;;;2.60;;
59306;SDS011;47983;53.016;-2.260;2023-08-31T00:14:10;9.68;;;3.13;;
59306;SDS011;47983;53.016;-2.260;2023-08-31T00:16:38;4.93;;;2.47;;
59306;SDS011;47983;53.016;-2.260;2023-08-31T00:19:06;7.45;;;3.00;;
59306;SDS011;47983;53.016;-2.260;2023-08-31T00:21:34;8.20;;;2.85;;
59306;SDS011;47983;53.016;-2.260;2023-08-31T00:24:01;7.75;;;3.30;;
59306;SDS011;47983;53.016;-2.260;2023-08-31T00:26:29;7.32;;;3.00;;
59306;SDS011;47983;53.016;-2.260;2023-08-31T00:28:58;9.32;;;2.78;;
59306;SDS011;47983;53.016;-2.260;2023-08-31T00:31:26;8.68;;;3.00;;
59306;SDS011;47983;53.016;-2.260;2023-08-31T00:33:54;6.07;;;2.70;;
59306;SDS011;47983;53.016;-2.260;2023-08-31T00:36:22;7.18;;;2.30;;
59306;SDS011;47983;53.016;-2.260;2023-08-31T00:38:50;5.43;;;2.72;;
59306;SDS011;47983;53.016;-2.260;2023-08-31T00:41:17;6.65;;;2.20;;
59306;SDS011;47983;53.016;-2.260;2023-08-31T00:43:45;6.53;;;2.63;;
59306;SDS011;47983;53.016;-2.260;2023-08-31T00:46:13;11.80;;;2.83;;
59306;SDS011;47983;53.016;-2.260;2023-08-31T00:48:41;6.13;;;2.78;;
59306;SDS011;47983;53.016;-2.260;2023-08-31T00:51:09;9.35;;;3.00;;
59306;SDS011;47983;53.016;-2.260;2023-08-31T00:53:38;6.50;;;2.53;;
59306;SDS011;47983;53.016;-2.260;2023-08-31T00:56:05;6.35;;;2.28;;
59306;SDS011;47983;53.016;-2.260;2023-08-31T00:58:34;9.57;;;2.50;;
59306;SDS011;47983;53.016;-2.260;2023-08-31T01:04:12;7.20;;;2.65;;
59306;SDS011;47983;53.016;-2.260;2023-08-31T01:10:04;7.05;;;3.15;;
59306;SDS011;47983;53.016;-2.260;2023-08-31T01:15:17;9.82;;;3.20;;
59306;SDS011;47983;53.016;-2.260;2023-08-31T01:17:47;6.93;;;3.10;;
59306;SDS011;47983;53.016;-2.260;2023-08-31T01:20:28;13.43;;;3.33;;
59306;SDS011;47983;53.016;-2.260;2023-08-31T01:23:02;8.32;;;3.13;;
59306;SDS011;47983;53.016;-2.260;2023-08-31T01:25:42;5.82;;;3.05;;
59306;SDS011;47983;53.016;-2.260;2023-08-31T01:28:11;6.47;;;2.42;;
59306;SDS011;47983;53.016;-2.260;2023-08-31T01:30:39;8.32;;;3.10;;
59306;SDS011;47983;53.016;-2.260;2023-08-31T01:33:07;6.43;;;2.70;;
59306;SDS011;47983;53.016;-2.260;2023-08-31T01:35:41;7.43;;;3.13;;
59306;SDS011;47983;53.016;-2.260;2023-08-31T01:38:14;7.20;;;3.28;;
59306;SDS011;47983;53.016;-2.260;2023-08-31T01:40:48;13.48;;;3.40;;
59306;SDS011;47983;53.016;-2.260;2023-08-31T01:43:27;10.77;;;3.28;;
59306;SDS011;47983;53.016;-2.260;2023-08-31T01:45:55;5.85;;;2.88;;
59306;SDS011;47983;53.016;-2.260;2023-08-31T01:48:23;9.57;;;3.10;;
59306;SDS011;47983;53.016;-2.260;2023-08-31T01:50:52;8.02;;;3.05;;
59306;SDS011;47983;53.016;-2.260;2023-08-31T01:53:19;11.60;;;3.25;;
59306;SDS011;47983;53.016;-2.260;2023-08-31T01:55:47;4.15;;;2.30;;
59306;SDS011;47983;53.016;-2.260;2023-08-31T01:58:15;8.65;;;2.88;;
59306;SDS011;47983;53.016;-2.260;2023-08-31T02:00:42;4.97;;;2.85;;
59306;SDS011;47983;53.016;-2.260;2023-08-31T02:03:11;8.48;;;3.28;;
59306;SDS011;47983;53.016;-2.260;2023-08-31T02:05:41;8.10;;;2.70;;
59306;SDS011;47983;53.016;-2.260;2023-08-31T02:08:09;6.25;;;3.13;;
59306;SDS011;47983;53.016;-2.260;2023-08-31T02:10:36;4.22;;;2.30;;
59306;SDS011;47983;53.016;-2.260;2023-08-31T02:13:04;7.78;;;2.65;;
59306;SDS011;47983;53.016;-2.260;2023-08-31T02:15:32;7.85;;;3.13;;
59306;SDS011;47983;53.016;-2.260;2023-08-31T02:17:59;6.95;;;2.97;;
59306;SDS011;47983;53.016;-2.260;2023-08-31T02:20:27;5.32;;;2.92;;
59306;SDS011;47983;53.016;-2.260;2023-08-31T02:22:55;6.10;;;2.75;;
59306;SDS011;47983;53.016;-2.260;2023-08-31T02:25:22;3.70;;;2.65;;
59306;SDS011;47983;53.016;-2.260;2023-08-31T02:27:50;6.13;;;2.60;;
59306;SDS011;47983;53.016;-2.260;2023-08-31T02:30:18;4.93;;;2.75;;
59306;SDS011;47983;53.016;-2.260;2023-08-31T02:32:45;5.85;;;2.47;;
59306;SDS011;47983;53.016;-2.260;2023-08-31T02:35:14;7.57;;;3.00;;
59306;SDS011;47983;53.016;-2.260;2023-08-31T02:37:42;5.57;;;2.83;;
59306;SDS011;47983;53.016;-2.260;2023-08-31T02:40:10;6.95;;;2.95;;
59306;SDS011;47983;53.016;-2.260;2023-08-31T02:42:38;7.40;;;3.25;;
59306;SDS011;47983;53.016;-2.260;2023-08-31T02:45:06;7.75;;;3.40;;
59306;SDS011;47983;53.016;-2.260;2023-08-31T02:47:34;8.55;;;3.40;;
59306;SDS011;47983;53.016;-2.260;2023-08-31T02:50:02;5.85;;;3.40;;
59306;SDS011;47983;53.016;-2.260;2023-08-31T02:52:32;9.45;;;3.67;;
59306;SDS011;47983;53.016;-2.260;2023-08-31T02:55:00;10.30;;;3.80;;
59306;SDS011;47983;53.016;-2.260;2023-08-31T02:57:27;8.80;;;3.70;;
59306;SDS011;47983;53.016;-2.260;2023-08-31T02:59:55;9.40;;;3.92;;
59306;SDS011;47983;53.016;-2.260;2023-08-31T03:02:22;8.93;;;3.20;;
59306;SDS011;47983;53.016;-2.260;2023-08-31T03:04:50;13.65;;;3.72;;
59306;SDS011;47983;53.016;-2.260;2023-08-31T03:07:18;8.88;;;3.35;;
59306;SDS011;47983;53.016;-2.260;2023-08-31T03:09:49;6.65;;;3.28;;
59306;SDS011;47983;53.016;-2.260;2023-08-31T03:12:17;6.07;;;2.97;;
59306;SDS011;47983;53.016;-2.260;2023-08-31T03:14:45;7.70;;;3.63;;
59306;SDS011;47983;53.016;-2.260;2023-08-31T03:17:13;10.98;;;4.05;;
59306;SDS011;47983;53.016;-2.260;2023-08-31T03:19:40;5.20;;;2.80;;
59306;SDS011;47983;53.016;-2.260;2023-08-31T03:22:09;7.75;;;3.10;;
59306;SDS011;47983;53.016;-2.260;2023-08-31T03:24:40;6.97;;;3.20;;
59306;SDS011;47983;53.016;-2.260;2023-08-31T03:27:13;8.38;;;3.33;;
59306;SDS011;47983;53.016;-2.260;2023-08-31T03:29:40;6.55;;;3.55;;
59306;SDS011;47983;53.016;-2.260;2023-08-31T03:32:08;7.93;;;3.40;;
59306;SDS011;47983;53.016;-2.260;2023-08-31T03:34:36;8.02;;;3.65;;
59306;SDS011;47983;53.016;-2.260;2023-08-31T03:37:04;6.07;;;3.30;;
59306;SDS011;47983;53.016;-2.260;2023-08-31T03:39:33;9.43;;;3.00;;
59306;SDS011;47983;53.016;-2.260;2023-08-31T03:42:01;10.90;;;3.70;;
59306;SDS011;47983;53.016;-2.260;2023-08-31T03:44:30;10.68;;;3.50;;
59306;SDS011;47983;53.016;-2.260;2023-08-31T03:46:57;8.77;;;3.45;;
59306;SDS011;47983;53.016;-2.260;2023-08-31T03:49:25;8.52;;;3.53;;
59306;SDS011;47983;53.016;-2.260;2023-08-31T03:51:52;6.93;;;3.47;;
59306;SDS011;47983;53.016;-2.260;2023-08-31T03:54:20;6.65;;;3.30;;
59306;SDS011;47983;53.016;-2.260;2023-08-31T03:56:48;11.93;;;3.83;;
59306;SDS011;47983;53.016;-2.260;2023-08-31T03:59:17;6.80;;;3.95;;
59306;SDS011;47983;53.016;-2.260;2023-08-31T04:01:45;7.65;;;4.13;;
59306;SDS011;47983;53.016;-2.260;2023-08-31T04:04:14;9.82;;;3.40;;
59306;SDS011;47983;53.016;-2.260;2023-08-31T04:06:41;10.90;;;4.00;;
59306;SDS011;47983;53.016;-2.260;2023-08-31T04:09:09;8.60;;;3.67;;
59306;SDS011;47983;53.016;-2.260;2023-08-31T04:11:36;11.35;;;4.00;;
59306;SDS011;47983;53.016;-2.260;2023-08-31T04:14:04;6.95;;;3.53;;
59306;SDS011;47983;53.016;-2.260;2023-08-31T04:16:32;8.75;;;3.58;;
59306;SDS011;47983;53.016;-2.260;2023-08-31T04:18:59;7.93;;;3.95;;
59306;SDS011;47983;53.016;-2.260;2023-08-31T04:21:27;8.07;;;3.67;;
59306;SDS011;47983;53.016;-2.260;2023-08-31T04:23:54;6.57;;;3.67;;
59306;SDS011;47983;53.016;-2.260;2023-08-31T04:26:22;9.70;;;3.85;;
59306;SDS011;47983;53.016;-2.260;2023-08-31T04:28:51;5.63;;;3.70;;
59306;SDS011;47983;53.016;-2.260;2023-08-31T04:31:18;8.32;;;4.30;;
59306;SDS011;47983;53.016;-2.260;2023-08-31T04:33:46;9.95;;;3.88;;
59306;SDS011;47983;53.016;-2.260;2023-08-31T04:36:15;8.02;;;3.90;;
59306;SDS011;47983;53.016;-2.260;2023-08-31T04:38:42;8.45;;;3.50;;
59306;SDS011;47983;53.016;-2.260;2023-08-31T04:41:10;4.53;;;2.78;;
59306;SDS011;47983;53.016;-2.260;2023-08-31T04:43:37;7.70;;;3.45;;
59306;SDS011;47983;53.016;-2.260;2023-08-31T04:46:06;7.70;;;3.58;;
59306;SDS011;47983;53.016;-2.260;2023-08-31T04:48:33;6.75;;;3.13;;
59306;SDS011;47983;53.016;-2.260;2023-08-31T04:51:01;6.63;;;3.72;;
59306;SDS011;47983;53.016;-2.260;2023-08-31T04:53:31;8.80;;;3.50;;
59306;SDS011;47983;53.016;-2.260;2023-08-31T04:55:59;12.23;;;4.88;;
59306;SDS011;47983;53.016;-2.260;2023-08-31T04:58:27;8.07;;;3.63;;
59306;SDS011;47983;53.016;-2.260;2023-08-31T05:00:54;7.60;;;3.90;;
59306;SDS011;47983;53.016;-2.260;2023-08-31T05:03:22;7.97;;;3.65;;
59306;SDS011;47983;53.016;-2.260;2023-08-31T05:05:49;8.98;;;3.58;;
59306;SDS011;47983;53.016;-2.260;2023-08-31T05:08:17;6.93;;;3.28;;
59306;SDS011;47983;53.016;-2.260;2023-08-31T05:10:45;7.28;;;3.33;;
59306;SDS011;47983;53.016;-2.260;2023-08-31T05:13:13;9.10;;;3.60;;
59306;SDS011;47983;53.016;-2.260;2023-08-31T05:15:41;9.60;;;3.65;;
59306;SDS011;47983;53.016;-2.260;2023-08-31T05:18:08;9.93;;;4.10;;
59306;SDS011;47983;53.016;-2.260;2023-08-31T05:20:36;12.23;;;3.67;;
59306;SDS011;47983;53.016;-2.260;2023-08-31T05:23:04;12.15;;;3.53;;
59306;SDS011;47983;53.016;-2.260;2023-08-31T05:25:31;9.63;;;4.07;;
59306;SDS011;47983;53.016;-2.260;2023-08-31T05:27:59;9.60;;;3.92;;
59306;SDS011;47983;53.016;-2.260;2023-08-31T05:30:26;7.18;;;3.53;;
59306;SDS011;47983;53.016;-2.260;2023-08-31T05:32:55;8.05;;;3.95;;
59306;SDS011;47983;53.016;-2.260;2023-08-31T05:35:22;11.45;;;3.83;;
59306;SDS011;47983;53.016;-2.260;2023-08-31T05:37:50;9.02;;;4.78;;
59306;SDS011;47983;53.016;-2.260;2023-08-31T05:40:18;11.95;;;5.05;;
59306;SDS011;47983;53.016;-2.260;2023-08-31T05:42:45;8.60;;;4.40;;
59306;SDS011;47983;53.016;-2.260;2023-08-31T05:45:13;11.68;;;4.50;;
59306;SDS011;47983;53.016;-2.260;2023-08-31T05:47:42;12.52;;;4.22;;
59306;SDS011;47983;53.016;-2.260;2023-08-31T05:50:09;9.93;;;3.97;;
59306;SDS011;47983;53.016;-2.260;2023-08-31T05:52:37;8.05;;;3.92;;
59306;SDS011;47983;53.016;-2.260;2023-08-31T05:55:11;9.38;;;4.07;;
59306;SDS011;47983;53.016;-2.260;2023-08-31T05:57:38;9.63;;;3.85;;
59306;SDS011;47983;53.016;-2.260;2023-08-31T06:00:06;13.23;;;4.25;;
59306;SDS011;47983;53.016;-2.260;2023-08-31T06:02:38;10.13;;;5.22;;
59306;SDS011;47983;53.016;-2.260;2023-08-31T06:05:07;12.43;;;5.03;;
59306;SDS011;47983;53.016;-2.260;2023-08-31T06:07:35;12.15;;;4.95;;
59306;SDS011;47983;53.016;-2.260;2023-08-31T06:10:03;10.00;;;5.22;;
59306;SDS011;47983;53.016;-2.260;2023-08-31T06:12:32;10.52;;;5.45;;
59306;SDS011;47983;53.016;-2.260;2023-08-31T06:15:00;11.55;;;6.10;;
59306;SDS011;47983;53.016;-2.260;2023-08-31T06:17:27;14.07;;;7.05;;
59306;SDS011;47983;53.016;-2.260;2023-08-31T06:19:55;9.98;;;5.38;;
59306;SDS011;47983;53.016;-2.260;2023-08-31T06:22:23;12.35;;;5.25;;
59306;SDS011;47983;53.016;-2.260;2023-08-31T06:24:51;17.60;;;7.32;;
59306;SDS011;47983;53.016;-2.260;2023-08-31T06:27:19;11.75;;;6.43;;
59306;SDS011;47983;53.016;-2.260;2023-08-31T06:29:46;16.60;;;7.57;;
59306;SDS011;47983;53.016;-2.260;2023-08-31T06:32:15;19.40;;;7.82;;
59306;SDS011;47983;53.016;-2.260;2023-08-31T06:34:44;9.95;;;7.38;;
59306;SDS011;47983;53.016;-2.260;2023-08-31T06:37:12;14.30;;;7.90;;
59306;SDS011;47983;53.016;-2.260;2023-08-31T06:39:40;13.27;;;7.65;;
59306;SDS011;47983;53.016;-2.260;2023-08-31T06:42:08;14.55;;;7.32;;
59306;SDS011;47983;53.016;-2.260;2023-08-31T06:44:38;17.58;;;8.25;;
59306;SDS011;47983;53.016;-2.260;2023-08-31T06:47:05;16.92;;;8.73;;
59306;SDS011;47983;53.016;-2.260;2023-08-31T06:49:33;20.35;;;9.23;;
59306;SDS011;47983;53.016;-2.260;2023-08-31T06:52:01;12.93;;;8.30;;
59306;SDS011;47983;53.016;-2.260;2023-08-31T06:54:38;16.23;;;7.95;;
59306;SDS011;47983;53.016;-2.260;2023-08-31T06:57:06;15.95;;;8.10;;
59306;SDS011;47983;53.016;-2.260;2023-08-31T06:59:35;15.23;;;7.85;;
59306;SDS011;47983;53.016;-2.260;2023-08-31T07:02:03;14.73;;;7.38;;
59306;SDS011;47983;53.016;-2.260;2023-08-31T07:04:34;14.50;;;7.32;;
59306;SDS011;47983;53.016;-2.260;2023-08-31T07:07:01;15.38;;;8.00;;
59306;SDS011;47983;53.016;-2.260;2023-08-31T07:09:29;12.07;;;7.00;;
59306;SDS011;47983;53.016;-2.260;2023-08-31T07:11:57;17.15;;;7.72;;
59306;SDS011;47983;53.016;-2.260;2023-08-31T07:14:25;13.27;;;6.75;;
59306;SDS011;47983;53.016;-2.260;2023-08-31T07:16:53;17.98;;;7.35;;
59306;SDS011;47983;53.016;-2.260;2023-08-31T07:19:20;12.02;;;7.20;;
59306;SDS011;47983;53.016;-2.260;2023-08-31T07:21:48;10.20;;;6.22;;
59306;SDS011;47983;53.016;-2.260;2023-08-31T07:24:16;16.30;;;6.53;;
59306;SDS011;47983;53.016;-2.260;2023-08-31T07:26:43;12.38;;;5.80;;
59306;SDS011;47983;53.016;-2.260;2023-08-31T07:29:11;12.27;;;7.00;;
59306;SDS011;47983;53.016;-2.260;2023-08-31T07:31:39;12.65;;;5.65;;
59306;SDS011;47983;53.016;-2.260;2023-08-31T07:34:07;10.63;;;4.82;;
59306;SDS011;47983;53.016;-2.260;2023-08-31T07:36:35;10.93;;;5.22;;
59306;SDS011;47983;53.016;-2.260;2023-08-31T07:39:06;8.65;;;4.95;;
59306;SDS011;47983;53.016;-2.260;2023-08-31T07:41:34;13.32;;;5.15;;
59306;SDS011;47983;53.016;-2.260;2023-08-31T07:44:02;13.57;;;5.30;;
59306;SDS011;47983;53.016;-2.260;2023-08-31T07:46:31;12.98;;;4.57;;
59306;SDS011;47983;53.016;-2.260;2023-08-31T07:48:59;11.75;;;5.13;;
59306;SDS011;47983;53.016;-2.260;2023-08-31T07:51:27;15.60;;;5.15;;
59306;SDS011;47983;53.016;-2.260;2023-08-31T07:53:55;10.55;;;3.97;;
59306;SDS011;47983;53.016;-2.260;2023-08-31T07:56:23;11.95;;;4.13;;
59306;SDS011;47983;53.016;-2.260;2023-08-31T07:58:51;12.38;;;3.92;;
59306;SDS011;47983;53.016;-2.260;2023-08-31T08:01:21;6.78;;;3.70;;
59306;SDS011;47983;53.016;-2.260;2023-08-31T08:03:49;13.82;;;3.92;;
59306;SDS011;47983;53.016;-2.260;2023-08-31T08:06:17;10.20;;;3.67;;
59306;SDS011;47983;53.016;-2.260;2023-08-31T08:08:44;9.57;;;4.35;;
59306;SDS011;47983;53.016;-2.260;2023-08-31T08:11:12;11.75;;;3.40;;
59306;SDS011;47983;53.016;-2.260;2023-08-31T08:13:40;10.30;;;3.53;;
59306;SDS011;47983;53.016;-2.260;2023-08-31T08:16:08;10.77;;;2.92;;
59306;SDS011;47983;53.016;-2.260;2023-08-31T08:18:36;9.75;;;3.92;;
59306;SDS011;47983;53.016;-2.260;2023-08-31T08:21:04;9.93;;;3.17;;
59306;SDS011;47983;53.016;-2.260;2023-08-31T08:23:31;9.15;;;3.83;;
59306;SDS011;47983;53.016;-2.260;2023-08-31T08:25:59;13.75;;;2.97;;
59306;SDS011;47983;53.016;-2.260;2023-08-31T08:28:27;7.47;;;2.88;;
59306;SDS011;47983;53.016;-2.260;2023-08-31T08:30:55;10.18;;;2.90;;
59306;SDS011;47983;53.016;-2.260;2023-08-31T08:33:23;7.07;;;2.50;;
59306;SDS011;47983;53.016;-2.260;2023-08-31T08:35:51;7.85;;;2.63;;
59306;SDS011;47983;53.016;-2.260;2023-08-31T08:38:22;5.47;;;1.98;;
59306;SDS011;47983;53.016;-2.260;2023-08-31T08:40:50;7.53;;;2.40;;
59306;SDS011;47983;53.016;-2.260;2023-08-31T08:43:19;7.00;;;1.85;;
59306;SDS011;47983;53.016;-2.260;2023-08-31T08:45:53;9.65;;;2.30;;
59306;SDS011;47983;53.016;-2.260;2023-08-31T08:48:21;4.95;;;2.20;;
59306;SDS011;47983;53.016;-2.260;2023-08-31T08:50:50;8.98;;;2.28;;
59306;SDS011;47983;53.016;-2.260;2023-08-31T08:53:18;10.32;;;2.22;;
59306;SDS011;47983;53.016;-2.260;2023-08-31T08:55:46;7.53;;;2.08;;
59306;SDS011;47983;53.016;-2.260;2023-08-31T08:58:22;7.28;;;2.10;;
59306;SDS011;47983;53.016;-2.260;2023-08-31T09:00:50;4.38;;;1.55;;
59306;SDS011;47983;53.016;-2.260;2023-08-31T09:03:22;9.43;;;2.00;;
59306;SDS011;47983;53.016;-2.260;2023-08-31T09:05:51;6.22;;;1.70;;
59306;SDS011;47983;53.016;-2.260;2023-08-31T09:08:26;9.65;;;1.92;;
59306;SDS011;47983;53.016;-2.260;2023-08-31T09:10:57;5.32;;;1.80;;
59306;SDS011;47983;53.016;-2.260;2023-08-31T09:13:26;6.47;;;1.83;;
59306;SDS011;47983;53.016;-2.260;2023-08-31T09:15:58;7.72;;;1.58;;
59306;SDS011;47983;53.016;-2.260;2023-08-31T09:18:30;4.82;;;1.60;;
59306;SDS011;47983;53.016;-2.260;2023-08-31T09:21:00;5.50;;;1.52;;
59306;SDS011;47983;53.016;-2.260;2023-08-31T09:23:28;4.20;;;1.42;;
59306;SDS011;47983;53.016;-2.260;2023-08-31T09:25:56;4.03;;;1.45;;
59306;SDS011;47983;53.016;-2.260;2023-08-31T09:28:24;4.45;;;1.50;;
59306;SDS011;47983;53.016;-2.260;2023-08-31T09:31:07;6.45;;;1.35;;
59306;SDS011;47983;53.016;-2.260;2023-08-31T09:33:35;10.82;;;1.92;;
59306;SDS011;47983;53.016;-2.260;2023-08-31T09:36:05;7.10;;;2.03;;
59306;SDS011;47983;53.016;-2.260;2023-08-31T09:38:41;7.82;;;1.70;;
59306;SDS011;47983;53.016;-2.260;2023-08-31T09:41:12;8.95;;;2.05;;
59306;SDS011;47983;53.016;-2.260;2023-08-31T09:43:41;5.60;;;1.98;;
59306;SDS011;47983;53.016;-2.260;2023-08-31T09:46:09;7.10;;;2.03;;
59306;SDS011;47983;53.016;-2.260;2023-08-31T09:48:38;3.55;;;1.30;;
59306;SDS011;47983;53.016;-2.260;2023-08-31T09:51:11;5.40;;;1.48;;
59306;SDS011;47983;53.016;-2.260;2023-08-31T09:53:43;5.15;;;1.50;;
59306;SDS011;47983;53.016;-2.260;2023-08-31T09:56:17;3.00;;;1.27;;
59306;SDS011;47983;53.016;-2.260;2023-08-31T09:58:48;5.25;;;1.50;;
59306;SDS011;47983;53.016;-2.260;2023-08-31T10:01:16;6.38;;;1.70;;
59306;SDS011;47983;53.016;-2.260;2023-08-31T10:03:55;6.30;;;1.25;;
59306;SDS011;47983;53.016;-2.260;2023-08-31T10:06:24;3.13;;;0.98;;
59306;SDS011;47983;53.016;-2.260;2023-08-31T10:08:53;8.25;;;1.50;;
59306;SDS011;47983;53.016;-2.260;2023-08-31T10:11:21;10.25;;;2.22;;
59306;SDS011;47983;53.016;-2.260;2023-08-31T10:13:54;6.32;;;1.88;;
59306;SDS011;47983;53.016;-2.260;2023-08-31T10:16:22;9.23;;;1.90;;
59306;SDS011;47983;53.016;-2.260;2023-08-31T10:21:21;5.78;;;2.10;;
59306;SDS011;47983;53.016;-2.260;2023-08-31T10:23:49;3.60;;;1.90;;
59306;SDS011;47983;53.016;-2.260;2023-08-31T10:26:25;6.88;;;2.20;;
59306;SDS011;47983;53.016;-2.260;2023-08-31T10:28:57;5.63;;;2.30;;
59306;SDS011;47983;53.016;-2.260;2023-08-31T10:31:29;5.35;;;2.20;;
59306;SDS011;47983;53.016;-2.260;2023-08-31T10:33:59;6.40;;;2.20;;
59306;SDS011;47983;53.016;-2.260;2023-08-31T10:36:37;6.55;;;2.92;;
59306;SDS011;47983;53.016;-2.260;2023-08-31T10:39:15;6.32;;;2.60;;
59306;SDS011;47983;53.016;-2.260;2023-08-31T10:41:59;7.32;;;2.75;;
59306;SDS011;47983;53.016;-2.260;2023-08-31T10:44:30;6.53;;;2.65;;
59306;SDS011;47983;53.016;-2.260;2023-08-31T10:47:04;6.18;;;2.20;;
59306;SDS011;47983;53.016;-2.260;2023-08-31T10:49:33;8.70;;;2.60;;
59306;SDS011;47983;53.016;-2.260;2023-08-31T10:52:16;5.43;;;2.50;;
59306;SDS011;47983;53.016;-2.260;2023-08-31T10:55:07;5.72;;;2.25;;
59306;SDS011;47983;53.016;-2.260;2023-08-31T10:57:35;7.90;;;2.40;;
59306;SDS011;47983;53.016;-2.260;2023-08-31T11:00:03;5.60;;;2.25;;
59306;SDS011;47983;53.016;-2.260;2023-08-31T11:02:36;8.20;;;2.67;;
59306;SDS011;47983;53.016;-2.260;2023-08-31T11:05:17;5.75;;;2.20;;
59306;SDS011;47983;53.016;-2.260;2023-08-31T11:07:50;9.10;;;3.15;;
59306;SDS011;47983;53.016;-2.260;2023-08-31T11:10:21;8.80;;;2.63;;
59306;SDS011;47983;53.016;-2.260;2023-08-31T11:12:54;7.78;;;2.67;;
59306;SDS011;47983;53.016;-2.260;2023-08-31T11:15:24;8.65;;;2.53;;
59306;SDS011;47983;53.016;-2.260;2023-08-31T11:17:54;7.40;;;2.03;;
59306;SDS011;47983;53.016;-2.260;2023-08-31T11:20:23;6.23;;;2.00;;
59306;SDS011;47983;53.016;-2.260;2023-08-31T11:22:55;8.13;;;1.65;;
59306;SDS011;47983;53.016;-2.260;2023-08-31T11:25:23;6.20;;;1.92;;
59306;SDS011;47983;53.016;-2.260;2023-08-31T11:27:53;5.95;;;1.80;;
59306;SDS011;47983;53.016;-2.260;2023-08-31T11:30:26;7.00;;;2.17;;
59306;SDS011;47983;53.016;-2.260;2023-08-31T11:33:05;6.85;;;2.30;;
59306;SDS011;47983;53.016;-2.260;2023-08-31T11:35:38;9.23;;;1.95;;
59306;SDS011;47983;53.016;-2.260;2023-08-31T11:38:13;6.47;;;1.77;;
59306;SDS011;47983;53.016;-2.260;2023-08-31T11:40:41;5.70;;;1.38;;
59306;SDS011;47983;53.016;-2.260;2023-08-31T11:43:08;3.78;;;1.42;;
59306;SDS011;47983;53.016;-2.260;2023-08-31T11:45:37;5.47;;;1.38;;
59306;SDS011;47983;53.016;-2.260;2023-08-31T11:48:06;3.97;;;1.60;;
59306;SDS011;47983;53.016;-2.260;2023-08-31T11:50:35;5.63;;;1.50;;
59306;SDS011;47983;53.016;-2.260;2023-08-31T11:53:04;5.57;;;2.10;;
59306;SDS011;47983;53.016;-2.260;2023-08-31T11:55:32;5.18;;;1.45;;
59306;SDS011;47983;53.016;-2.260;2023-08-31T11:58:00;5.00;;;1.67;;
59306;SDS011;47983;53.016;-2.260;2023-08-31T12:00:28;5.05;;;1.55;;
59306;SDS011;47983;53.016;-2.260;2023-08-31T12:02:57;5.22;;;1.50;;
59306;SDS011;47983;53.016;-2.260;2023-08-31T12:05:26;6.10;;;1.75;;
59306;SDS011;47983;53.016;-2.260;2023-08-31T12:07:54;5.70;;;2.08;;
59306;SDS011;47983;53.016;-2.260;2023-08-31T12:10:24;8.10;;;2.00;;
59306;SDS011;47983;53.016;-2.260;2023-08-31T12:12:52;5.07;;;1.90;;
59306;SDS011;47983;53.016;-2.260;2023-08-31T12:15:22;5.07;;;1.83;;
59306;SDS011;47983;53.016;-2.260;2023-08-31T12:17:50;8.65;;;1.92;;
59306;SDS011;47983;53.016;-2.260;2023-08-31T12:20:25;5.15;;;1.70;;
59306;SDS011;47983;53.016;-2.260;2023-08-31T12:22:54;3.25;;;1.50;;
59306;SDS011;47983;53.016;-2.260;2023-08-31T12:25:22;7.82;;;1.85;;
59306;SDS011;47983;53.016;-2.260;2023-08-31T12:27:50;7.03;;;2.00;;
59306;SDS011;47983;53.016;-2.260;2023-08-31T12:30:18;3.50;;;1.70;;
59306;SDS011;47983;53.016;-2.260;2023-08-31T12:32:46;2.38;;;1.50;;
59306;SDS011;47983;53.016;-2.260;2023-08-31T12:35:14;5.30;;;1.90;;
59306;SDS011;47983;53.016;-2.260;2023-08-31T12:37:41;4.72;;;1.77;;
59306;SDS011;47983;53.016;-2.260;2023-08-31T12:40:09;7.72;;;1.88;;
59306;SDS011;47983;53.016;-2.260;2023-08-31T12:42:37;4.53;;;1.80;;
59306;SDS011;47983;53.016;-2.260;2023-08-31T12:45:05;4.90;;;1.83;;
59306;SDS011;47983;53.016;-2.260;2023-08-31T12:47:34;5.43;;;1.60;;
59306;SDS011;47983;53.016;-2.260;2023-08-31T12:50:02;5.22;;;1.83;;
59306;SDS011;47983;53.016;-2.260;2023-08-31T12:52:30;6.00;;;1.60;;
59306;SDS011;47983;53.016;-2.260;2023-08-31T12:54:58;8.20;;;1.92;;
59306;SDS011;47983;53.016;-2.260;2023-08-31T12:57:25;5.88;;;1.45;;
59306;SDS011;47983;53.016;-2.260;2023-08-31T12:59:54;6.80;;;2.03;;
59306;SDS011;47983;53.016;-2.260;2023-08-31T13:02:21;2.40;;;1.52;;
59306;SDS011;47983;53.016;-2.260;2023-08-31T13:04:49;5.35;;;2.00;;
59306;SDS011;47983;53.016;-2.260;2023-08-31T13:07:17;4.65;;;1.77;;
59306;SDS011;47983;53.016;-2.260;2023-08-31T13:09:44;8.57;;;2.30;;
59306;SDS011;47983;53.016;-2.260;2023-08-31T13:14:43;4.40;;;2.00;;
59306;SDS011;47983;53.016;-2.260;2023-08-31T13:17:11;6.43;;;2.40;;
59306;SDS011;47983;53.016;-2.260;2023-08-31T13:19:39;6.32;;;2.45;;
59306;SDS011;47983;53.016;-2.260;2023-08-31T13:22:07;4.38;;;1.92;;
59306;SDS011;47983;53.016;-2.260;2023-08-31T13:24:35;6.10;;;2.35;;
59306;SDS011;47983;53.016;-2.260;2023-08-31T13:27:03;5.47;;;2.10;;
59306;SDS011;47983;53.016;-2.260;2023-08-31T13:29:31;9.43;;;3.28;;
59306;SDS011;47983;53.016;-2.260;2023-08-31T13:31:59;5.00;;;2.25;;
59306;SDS011;47983;53.016;-2.260;2023-08-31T13:34:26;7.22;;;2.53;;
59306;SDS011;47983;53.016;-2.260;2023-08-31T13:36:54;7.75;;;2.60;;
59306;SDS011;47983;53.016;-2.260;2023-08-31T13:39:23;4.68;;;2.65;;
59306;SDS011;47983;53.016;-2.260;2023-08-31T13:41:50;6.10;;;2.60;;
59306;SDS011;47983;53.016;-2.260;2023-08-31T13:44:22;11.02;;;2.92;;
59306;SDS011;47983;53.016;-2.260;2023-08-31T13:46:49;8.00;;;2.85;;
59306;SDS011;47983;53.016;-2.260;2023-08-31T13:49:17;5.65;;;2.63;;
59306;SDS011;47983;53.016;-2.260;2023-08-31T13:51:45;8.73;;;3.30;;
59306;SDS011;47983;53.016;-2.260;2023-08-31T13:54:13;6.25;;;2.70;;
59306;SDS011;47983;53.016;-2.260;2023-08-31T13:56:41;9.57;;;3.33;;
59306;SDS011;47983;53.016;-2.260;2023-08-31T13:59:09;6.13;;;3.53;;
59306;SDS011;47983;53.016;-2.260;2023-08-31T14:01:38;5.10;;;3.10;;
59306;SDS011;47983;53.016;-2.260;2023-08-31T14:04:05;6.97;;;3.15;;
59306;SDS011;47983;53.016;-2.260;2023-08-31T14:06:33;9.07;;;3.90;;
59306;SDS011;47983;53.016;-2.260;2023-08-31T14:09:01;8.98;;;3.40;;
59306;SDS011;47983;53.016;-2.260;2023-08-31T14:11:29;6.70;;;3.20;;
59306;SDS011;47983;53.016;-2.260;2023-08-31T14:14:03;7.43;;;3.22;;
59306;SDS011;47983;53.016;-2.260;2023-08-31T14:16:38;6.07;;;2.90;;
59306;SDS011;47983;53.016;-2.260;2023-08-31T14:19:06;8.15;;;2.75;;
59306;SDS011;47983;53.016;-2.260;2023-08-31T14:21:34;4.75;;;2.58;;
59306;SDS011;47983;53.016;-2.260;2023-08-31T14:24:02;6.75;;;2.65;;
59306;SDS011;47983;53.016;-2.260;2023-08-31T14:26:31;9.23;;;2.93;;
59306;SDS011;47983;53.016;-2.260;2023-08-31T14:28:59;4.57;;;2.75;;
59306;SDS011;47983;53.016;-2.260;2023-08-31T14:31:26;9.77;;;2.97;;
59306;SDS011;47983;53.016;-2.260;2023-08-31T14:33:54;6.00;;;2.72;;
59306;SDS011;47983;53.016;-2.260;2023-08-31T14:36:22;8.45;;;2.20;;
59306;SDS011;47983;53.016;-2.260;2023-08-31T14:38:52;4.82;;;2.33;;
59306;SDS011;47983;53.016;-2.260;2023-08-31T14:41:20;5.78;;;2.20;;
59306;SDS011;47983;53.016;-2.260;2023-08-31T14:43:47;6.90;;;2.30;;
59306;SDS011;47983;53.016;-2.260;2023-08-31T14:46:16;6.38;;;2.22;;
59306;SDS011;47983;53.016;-2.260;2023-08-31T14:48:43;6.43;;;2.13;;
59306;SDS011;47983;53.016;-2.260;2023-08-31T14:51:11;4.45;;;1.90;;
59306;SDS011;47983;53.016;-2.260;2023-08-31T14:53:40;8.75;;;2.55;;
59306;SDS011;47983;53.016;-2.260;2023-08-31T14:56:08;5.93;;;2.10;;